Time;durP1;ratioP1;P1;durP2;ratioP2;P2;SDS_P1;SDS_P2;PMS_P1;PMS_P2;Temp;Humidity;BMP_temperature;BMP_pressure;BME280_temperature;BME280_humidity;BME280_pressure;Samples;Min_cycle;Max_cycle;Signal;HPM_P1;HPM_P2
2023/10/13 00:02:26;;;;;;;5.92;3.08;;;;;;;14.37;48.54;100496.24;1707790;82;21318;-82
2023/10/13 00:05:31;;;;;;;6.37;2.90;;;;;;;14.38;48.47;100490.53;1724312;82;21351;-81
2023/10/13 00:08:38;;;;;;;9.88;3.22;;;;;;;14.31;48.47;100483.60;1690417;82;21346;-81
2023/10/13 00:11:44;;;;;;;9.65;2.98;;;;;;;14.32;48.46;100483.08;1689459;84;21372;-82
2023/10/13 00:14:51;;;;;;;6.03;3.17;;;;;;;14.31;48.45;100473.97;1698339;83;21313;-82
2023/10/13 00:17:56;;;;;;;11.25;2.90;;;;;;;14.10;48.92;100464.84;1681497;83;21330;-82
2023/10/13 00:21:12;;;;;;;7.33;3.12;;;;;;;13.94;49.18;100465.44;1729633;81;22031;-81
2023/10/13 00:24:15;;;;;;;11.43;2.70;;;;;;;13.95;49.36;100464.37;1727096;81;21330;-81
2023/10/13 00:27:41;;;;;;;6.03;2.90;;;;;;;13.97;49.35;100462.30;1726349;80;21900;-81
2023/10/13 00:30:50;;;;;;;8.20;3.00;;;;;;;14.10;49.04;100464.84;1728982;80;21362;-82
2023/10/13 00:33:55;;;;;;;9.63;3.25;;;;;;;13.97;49.20;100463.68;1707565;83;21337;-82
2023/10/13 00:37:19;;;;;;;3.83;2.45;;;;;;;14.39;48.37;100467.46;1730914;80;21404;-82
2023/10/13 00:43:40;;;;;;;6.65;3.02;;;;;;;14.26;48.65;100456.36;1742821;81;21361;-82
2023/10/13 00:46:45;;;;;;;7.72;3.33;;;;;;;13.94;49.37;100461.31;1728598;81;22332;-83
2023/10/13 00:49:51;;;;;;;6.33;3.30;;;;;;;13.95;49.37;100463.01;1727736;81;21319;-82
2023/10/13 00:52:56;;;;;;;9.10;3.30;;;;;;;14.04;49.15;100459.09;1734577;81;21321;-81
2023/10/13 00:56:18;;;;;;;8.08;3.50;;;;;;;14.21;48.82;100457.44;1730674;80;21345;-81
2023/10/13 00:59:13;;;;;;;8.98;3.77;;;;;;;14.06;48.97;100444.60;1740327;80;21356;-84
2023/10/13 01:02:38;;;;;;;9.23;3.52;;;;;;;14.10;49.01;100442.32;1722996;80;21400;-83
2023/10/13 01:05:45;;;;;;;8.10;3.10;;;;;;;14.13;48.85;100435.59;1736556;82;21395;-83
2023/10/13 01:08:59;;;;;;;13.83;4.33;;;;;;;14.17;48.79;100442.41;1727744;80;21490;-83
2023/10/13 01:12:05;;;;;;;7.40;3.45;;;;;;;14.27;48.55;100442.92;1721706;82;21337;-82
2023/10/13 01:15:16;;;;;;;7.65;3.25;;;;;;;14.32;48.44;100445.93;1734079;80;21243;-82
2023/10/13 01:18:21;;;;;;;17.42;4.53;;;;;;;14.24;48.54;100443.30;1743815;80;21354;-82
2023/10/13 01:21:32;;;;;;;6.80;3.60;;;;;;;14.30;48.45;100446.14;1748426;80;21361;-83
2023/10/13 01:24:37;;;;;;;9.78;3.75;;;;;;;14.50;47.98;100453.22;1711991;81;22379;-83
2023/10/13 01:27:48;;;;;;;4.37;2.65;;;;;;;14.28;48.27;100447.37;1719426;82;21339;-82
2023/10/13 01:30:55;;;;;;;8.43;3.65;;;;;;;14.33;48.11;100444.34;1731141;82;21366;-82
2023/10/13 01:34:01;;;;;;;7.75;3.52;;;;;;;14.17;48.43;100446.53;1710129;81;21350;-82
2023/10/13 01:37:07;;;;;;;7.72;3.33;;;;;;;14.26;48.22;100450.86;1695527;83;21365;-82
2023/10/13 01:40:19;;;;;;;7.42;3.62;;;;;;;14.38;47.95;100457.52;1686460;83;21940;-83
2023/10/13 01:43:25;;;;;;;8.15;3.10;;;;;;;14.31;48.13;100449.73;1688591;83;21342;-82
2023/10/13 01:46:32;;;;;;;7.08;3.58;;;;;;;14.25;48.25;100451.88;1661121;85;21941;-82
2023/10/13 01:49:47;;;;;;;11.73;3.55;;;;;;;14.21;48.34;100447.31;1650343;86;21229;-82
2023/10/13 01:52:50;;;;;;;6.28;3.10;;;;;;;14.11;48.51;100444.55;1657041;86;21403;-82
2023/10/13 01:55:58;;;;;;;5.47;2.85;;;;;;;14.10;48.46;100435.97;1724229;82;21662;-82
2023/10/13 01:59:05;;;;;;;8.00;3.30;;;;;;;14.04;48.59;100441.73;1722555;82;21322;-82
2023/10/13 02:02:15;;;;;;;7.17;3.77;;;;;;;13.99;48.70;100443.70;1687379;83;21977;-83
2023/10/13 02:05:20;;;;;;;6.95;3.70;;;;;;;13.76;49.20;100445.23;1691921;84;21350;-82
2023/10/13 02:08:28;;;;;;;9.83;5.33;;;;;;;13.83;49.28;100442.55;1694998;82;21338;-82
2023/10/13 02:11:33;;;;;;;11.30;4.55;;;;;;;13.97;49.02;100442.17;1709493;83;21327;-82
2023/10/13 02:14:38;;;;;;;12.50;4.78;;;;;;;14.18;48.76;100440.82;1662401;83;21992;-82
2023/10/13 02:17:44;;;;;;;10.93;4.20;;;;;;;14.17;48.91;100434.16;1710887;83;21915;-83
2023/10/13 02:20:54;;;;;;;9.18;3.25;;;;;;;14.24;48.96;100441.41;1710122;83;21317;-83
2023/10/13 02:24:03;;;;;;;11.45;3.27;;;;;;;14.26;49.08;100443.98;1730957;80;21327;-82
2023/10/13 02:27:13;;;;;;;6.70;3.02;;;;;;;14.34;48.90;100439.69;1690781;84;21368;-83
2023/10/13 02:30:23;;;;;;;6.33;2.77;;;;;;;14.25;49.06;100440.87;1674312;84;21361;-83
2023/10/13 02:33:32;;;;;;;10.38;3.10;;;;;;;14.22;49.27;100453.67;1671415;84;22007;-83
2023/10/13 02:36:46;;;;;;;6.62;2.90;;;;;;;14.14;49.52;100449.66;1672615;84;21369;-82
2023/10/13 02:39:46;;;;;;;6.45;3.15;;;;;;;14.00;50.05;100444.55;1673443;84;21345;-83
2023/10/13 02:42:51;;;;;;;10.35;3.10;;;;;;;14.08;50.31;100431.20;1682174;84;21322;-82
2023/10/13 02:46:02;;;;;;;7.65;3.10;;;;;;;14.19;50.50;100438.92;1668692;85;21391;-82
2023/10/13 02:49:11;;;;;;;6.62;3.00;;;;;;;14.37;50.56;100439.30;1723450;82;22325;-82
2023/10/13 02:52:16;;;;;;;8.03;2.60;;;;;;;14.34;51.17;100432.81;1723787;82;22348;-82
2023/10/13 02:55:28;;;;;;;8.28;3.12;;;;;;;14.62;51.04;100434.25;1719893;82;21248;-83
2023/10/13 02:58:45;;;;;;;10.53;2.90;;;;;;;14.94;50.55;100429.19;1717004;82;21337;-82
2023/10/13 03:01:51;;;;;;;5.78;2.98;;;;;;;15.13;50.39;100427.61;1723696;82;21316;-83
2023/10/13 03:05:09;;;;;;;14.05;3.17;;;;;;;15.08;50.77;100409.78;1726127;82;21402;-82
2023/10/13 03:08:06;;;;;;;10.65;3.30;;;;;;;15.18;51.06;100405.27;1690194;84;21337;-83
2023/10/13 03:11:11;;;;;;;7.25;3.10;;;;;;;15.45;50.73;100408.16;1722223;82;21347;-83
2023/10/13 03:14:27;;;;;;;11.40;3.40;;;;;;;15.45;50.68;100414.52;1728159;81;21410;-82
2023/10/13 03:17:37;;;;;;;4.65;2.62;;;;;;;15.30;51.22;100421.56;1750615;80;21260;-83
2023/10/13 03:20:50;;;;;;;7.45;2.92;;;;;;;15.39;51.29;100427.76;1746267;80;21342;-82
2023/10/13 03:23:54;;;;;;;8.58;3.02;;;;;;;15.55;51.27;100420.50;1749847;81;22361;-82
2023/10/13 03:27:08;;;;;;;9.25;2.60;;;;;;;15.67;51.26;100408.39;1745659;80;21342;-82
2023/10/13 03:30:13;;;;;;;9.58;3.00;;;;;;;15.77;51.26;100396.44;1732612;81;21338;-83
2023/10/13 03:33:25;;;;;;;5.12;3.05;;;;;;;16.06;50.96;100400.73;1719974;82;21345;-82
2023/10/13 03:36:58;;;;;;;8.10;3.60;;;;;;;15.77;51.77;100390.07;1722023;82;21356;-82
2023/10/13 03:39:36;;;;;;;5.17;2.40;;;;;;;15.83;51.93;100403.86;1722088;82;21349;-82
2023/10/13 03:42:42;;;;;;;7.08;2.72;;;;;;;15.95;51.95;100402.73;1725035;82;21355;-82
2023/10/13 03:46:00;;;;;;;8.50;3.00;;;;;;;16.26;51.36;100408.17;1682700;84;21384;-82
2023/10/13 03:49:01;;;;;;;5.97;3.58;;;;;;;16.31;51.29;100406.48;1674021;83;21298;-82
2023/10/13 03:52:06;;;;;;;14.68;7.33;;;;;;;16.54;50.68;100403.30;1704484;83;21234;-83
2023/10/13 03:55:17;;;;;;;23.45;10.95;;;;;;;16.33;51.09;100411.81;1710527;83;21334;-82
2023/10/13 03:58:22;;;;;;;16.10;8.65;;;;;;;16.44;50.95;100415.30;1733801;82;21349;-82
2023/10/13 04:01:34;;;;;;;16.87;7.78;;;;;;;16.38;51.13;100408.41;1732462;82;21331;-82
2023/10/13 04:04:53;;;;;;;13.78;6.58;;;;;;;16.40;51.36;100407.13;1731797;80;21984;-82
2023/10/13 04:17:50;;;;;;;17.00;7.70;;;;;;;16.80;50.11;100401.62;1706748;82;21286;-82
2023/10/13 04:21:39;;;;;;;15.20;6.72;;;;;;;16.89;49.93;100397.58;1704275;82;21359;-82
2023/10/13 04:31:59;;;;;;;13.50;7.05;;;;;;;16.87;50.17;100406.59;1665192;82;21968;-83
2023/10/13 04:34:27;;;;;;;23.95;8.08;;;;;;;16.89;50.18;100404.48;1721881;82;21406;-83
2023/10/13 04:37:30;;;;;;;20.27;7.62;;;;;;;16.79;50.40;100410.41;1727916;81;21377;-83
2023/10/13 04:40:36;;;;;;;11.33;5.35;;;;;;;16.84;50.41;100413.91;1732179;81;21394;-83
2023/10/13 04:44:04;;;;;;;10.28;3.50;;;;;;;16.86;50.64;100413.19;1724933;80;21353;-83
2023/10/13 04:47:09;;;;;;;12.20;3.35;;;;;;;16.86;50.71;100407.13;1706463;81;21338;-83
2023/10/13 04:50:30;;;;;;;9.10;3.87;;;;;;;16.85;50.82;100410.11;1718114;82;21384;-83
2023/10/13 04:53:33;;;;;;;10.32;3.45;;;;;;;16.95;50.72;100411.89;1715849;80;22027;-83
2023/10/13 05:48:11;;;;;;;9.83;4.75;;;;;;;18.24;50.65;100443.27;1708967;81;22631;-84
2023/10/13 05:50:49;;;;;;;8.05;3.92;;;;;;;18.39;50.53;100441.02;1700460;80;21324;-84
2023/10/13 06:30:47;;;;;;;16.80;10.10;;;;;;;19.90;49.63;100454.47;1686204;80;21380;-83
2023/10/13 06:33:55;;;;;;;46.23;28.25;;;;;;;20.19;48.85;100460.80;1708080;82;21372;-83
2023/10/13 06:37:02;;;;;;;28.32;18.80;;;;;;;20.25;48.59;100464.02;1691517;81;21355;-83
2023/10/13 06:43:32;;;;;;;18.73;6.00;;;;;;;20.33;48.55;100465.08;1714269;81;21940;-84
2023/10/13 06:46:38;;;;;;;18.25;5.37;;;;;;;20.55;48.33;100457.05;1713619;80;21346;-82
2023/10/13 06:49:45;;;;;;;21.73;12.45;;;;;;;20.62;48.27;100455.02;1693148;83;21292;-82
2023/10/13 06:52:56;;;;;;;53.00;34.65;;;;;;;20.74;48.25;100457.80;1708471;81;21333;-82
2023/10/13 06:56:02;;;;;;;16.05;7.65;;;;;;;20.95;48.06;100460.02;1700601;81;21960;-82
2023/10/13 06:59:09;;;;;;;19.95;10.65;;;;;;;21.04;48.00;100462.74;1707003;82;21321;-82
2023/10/13 07:02:33;;;;;;;13.72;6.62;;;;;;;21.01;47.81;100454.03;1706914;81;21338;-82
2023/10/13 07:05:34;;;;;;;25.23;10.80;;;;;;;21.16;47.86;100452.99;1711837;81;21876;-82
2023/10/13 07:08:40;;;;;;;15.20;5.92;;;;;;;21.33;47.64;100455.38;1719726;80;21313;-82
2023/10/13 07:11:50;;;;;;;17.25;7.65;;;;;;;21.49;47.59;100456.55;1715341;81;21385;-82
2023/10/13 07:15:10;;;;;;;16.90;7.12;;;;;;;21.68;47.47;100452.52;1724085;81;21378;-82
2023/10/13 07:18:08;;;;;;;24.32;12.75;;;;;;;21.74;47.32;100449.84;1701126;82;21341;-82
2023/10/13 07:21:24;;;;;;;72.65;41.58;;;;;;;21.84;46.83;100444.50;1708837;81;21324;-83
2023/10/13 07:24:35;;;;;;;51.50;26.82;;;;;;;21.94;46.68;100450.27;1680492;81;21961;-83
2023/10/13 07:27:35;;;;;;;22.10;10.08;;;;;;;21.73;47.01;100461.52;1697738;81;21983;-84
2023/10/13 07:34:05;;;;;;;13.55;4.60;;;;;;;21.71;47.19;100453.13;1710478;80;21335;-82
2023/10/13 07:37:16;;;;;;;12.63;3.75;;;;;;;21.68;47.24;100453.91;1721639;81;22370;-82
2023/10/13 07:40:51;;;;;;;;;;;;;;;21.59;47.57;100458.16;1721991;80;21685;-82
2023/10/13 07:43:32;;;;;;;17.27;4.97;;;;;;;21.64;47.52;100462.99;1715661;81;20319;-83
2023/10/13 07:46:39;;;;;;;10.75;4.80;;;;;;;21.77;47.22;100462.72;1730552;80;21369;-83
2023/10/13 07:49:50;;;;;;;16.67;5.42;;;;;;;21.85;47.18;100464.28;1701609;82;21293;-83
2023/10/13 07:53:34;;;;;;;14.15;4.87;;;;;;;21.99;47.25;100464.30;1712334;80;22024;-82
2023/10/13 07:56:17;;;;;;;10.23;4.28;;;;;;;22.16;46.98;100463.84;1714658;80;21371;-83
2023/10/13 07:59:24;;;;;;;11.70;5.78;;;;;;;22.32;46.70;100459.95;1721722;81;21333;-82
2023/10/13 08:02:52;;;;;;;13.78;5.72;;;;;;;22.17;47.21;100456.33;1718759;80;21333;-83
2023/10/13 08:06:06;;;;;;;13.30;5.08;;;;;;;22.37;47.03;100467.00;1714947;81;21233;-83
2023/10/13 08:09:40;;;;;;;16.70;5.78;;;;;;;22.59;46.72;100461.01;1722814;80;21383;-84
2023/10/13 08:12:43;;;;;;;11.93;5.30;;;;;;;22.64;46.85;100466.67;1683622;83;21398;-84
2023/10/13 08:15:52;;;;;;;10.60;5.15;;;;;;;22.70;46.76;100463.41;1705408;81;22633;-82
2023/10/13 08:19:01;;;;;;;10.32;5.15;;;;;;;22.85;46.55;100465.06;1707271;81;21367;-82
2023/10/13 08:26:13;;;;;;;17.57;9.55;;;;;;;23.02;46.36;100469.28;1667758;84;22536;-82
2023/10/13 08:35:23;;;;;;;26.17;11.75;;;;;;;23.82;44.88;100468.50;1664385;83;21395;-83
2023/10/13 08:38:28;;;;;;;;;;;;;;;23.81;45.18;100472.40;1699575;83;21366;-83
2023/10/13 08:41:38;;;;;;;28.70;16.62;;;;;;;23.94;45.06;100455.22;1669099;83;20720;-83
2023/10/13 08:44:44;;;;;;;16.32;7.15;;;;;;;23.94;45.20;100456.62;1726362;81;22032;-83
2023/10/13 08:48:07;;;;;;;19.07;8.58;;;;;;;24.22;44.84;100456.94;1741062;80;21345;-83
2023/10/13 08:51:08;;;;;;;24.25;9.53;;;;;;;24.19;45.11;100449.09;1722627;81;21333;-83
2023/10/13 08:54:09;;;;;;;15.13;6.05;;;;;;;24.55;44.71;100444.72;1687581;82;21365;-83
2023/10/13 08:57:53;;;;;;;25.48;9.98;;;;;;;24.52;44.79;100441.08;1688966;82;21372;-83
2023/10/13 09:00:28;;;;;;;14.38;5.53;;;;;;;24.62;44.69;100439.77;1716869;81;21383;-82
2023/10/13 09:03:41;;;;;;;14.93;5.45;;;;;;;24.62;44.63;100446.75;1730411;81;21984;-82
2023/10/13 09:07:35;;;;;;;10.90;4.95;;;;;;;24.53;44.70;100442.75;1718817;80;21381;-82
2023/10/13 09:09:59;;;;;;;14.43;4.55;;;;;;;24.42;45.00;100435.39;1699544;83;21342;-82
2023/10/13 09:13:11;;;;;;;9.38;5.03;;;;;;;24.21;44.97;100432.90;1711215;82;21351;-82
2023/10/13 09:19:59;;;;;;;14.60;4.95;;;;;;;24.41;44.66;100447.10;1714377;81;21400;-82
2023/10/13 09:26:19;;;;;;;10.88;4.37;;;;;;;24.28;45.31;100449.44;1734492;80;22463;-82
2023/10/13 09:29:29;;;;;;;13.53;5.75;;;;;;;24.54;44.86;100455.62;1708717;83;21325;-82
2023/10/13 09:32:45;;;;;;;12.18;5.08;;;;;;;24.63;44.59;100461.02;1726656;80;21340;-82
2023/10/13 09:35:42;;;;;;;16.67;4.87;;;;;;;24.80;44.38;100451.67;1715061;80;21332;-82
2023/10/13 09:38:48;;;;;;;13.78;5.17;;;;;;;24.85;44.03;100452.55;1724351;80;21345;-82
2023/10/13 09:41:57;;;;;;;9.18;3.83;;;;;;;25.08;43.41;100446.29;1733293;80;21337;-82
2023/10/13 09:45:04;;;;;;;12.55;4.67;;;;;;;24.84;43.61;100445.27;1710609;81;21938;-83
2023/10/13 09:48:18;;;;;;;13.48;4.67;;;;;;;25.08;43.56;100445.77;1706917;81;21345;-83
2023/10/13 09:51:25;;;;;;;17.12;6.22;;;;;;;25.30;43.04;100458.20;1713787;81;21355;-83
2023/10/13 09:54:41;;;;;;;19.92;6.05;;;;;;;25.22;43.41;100451.73;1726666;81;21364;-84
2023/10/13 09:57:57;;;;;;;15.60;5.45;;;;;;;25.19;43.50;100444.70;1703016;81;22313;-83
2023/10/13 10:01:09;;;;;;;11.40;5.72;;;;;;;25.35;43.22;100444.80;1734376;80;21348;-84
2023/10/13 10:04:23;;;;;;;15.03;5.47;;;;;;;25.47;42.89;100431.44;1705615;81;21365;-83
2023/10/13 10:07:36;;;;;;;15.05;5.75;;;;;;;25.60;42.46;100440.75;1689640;81;21390;-82
2023/10/13 10:11:15;;;;;;;24.92;6.45;;;;;;;25.58;42.38;100446.33;1725300;81;21921;-84
2023/10/13 10:14:41;;;;;;;16.85;6.83;;;;;;;25.44;42.57;100440.37;1700064;83;21364;-83
2023/10/13 10:17:53;;;;;;;17.57;6.55;;;;;;;25.44;42.49;100441.20;1649985;85;21367;-84
2023/10/13 10:21:02;;;;;;;12.05;6.47;;;;;;;25.39;42.61;100448.18;1723490;82;21357;-84
2023/10/13 10:24:08;;;;;;;18.17;7.47;;;;;;;25.30;42.82;100447.56;1712971;80;21406;-83
2023/10/13 10:27:14;;;;;;;16.82;6.85;;;;;;;25.49;42.35;100457.19;1709685;82;21237;-83
2023/10/13 10:30:24;;;;;;;14.83;6.33;;;;;;;25.56;42.23;100459.20;1715593;82;22017;-84
2023/10/13 10:33:33;;;;;;;17.37;7.00;;;;;;;25.52;42.20;100458.06;1655362;81;21325;-82
2023/10/13 10:36:37;;;;;;;14.10;6.15;;;;;;;25.56;42.22;100456.41;1670760;83;21366;-83
2023/10/13 10:39:46;;;;;;;15.80;5.55;;;;;;;25.53;42.19;100454.14;1709627;81;22278;-83
2023/10/13 10:43:00;;;;;;;9.78;5.55;;;;;;;25.34;42.55;100451.52;1677824;83;22302;-83
2023/10/13 10:46:07;;;;;;;14.15;5.10;;;;;;;25.34;42.48;100441.72;1692754;84;22268;-84
2023/10/13 10:49:18;;;;;;;20.92;5.85;;;;;;;25.38;42.53;100430.27;1701461;82;21358;-84
2023/10/13 10:52:26;;;;;;;19.50;5.15;;;;;;;25.54;42.40;100429.22;1730744;80;21875;-82
2023/10/13 10:55:31;;;;;;;9.15;4.28;;;;;;;25.22;43.16;100426.55;1748314;80;21377;-84
2023/10/13 10:58:46;;;;;;;9.25;4.60;;;;;;;25.23;43.21;100431.86;1743865;82;22705;-84
2023/10/13 11:01:53;;;;;;;15.35;5.03;;;;;;;25.46;42.81;100422.75;1740483;80;21345;-84
2023/10/13 11:04:59;;;;;;;17.27;5.80;;;;;;;25.65;42.65;100421.16;1730062;80;21361;-84
2023/10/13 11:08:09;;;;;;;13.50;5.40;;;;;;;25.52;43.00;100419.42;1731813;80;21358;-83
2023/10/13 11:11:17;;;;;;;12.88;5.58;;;;;;;25.71;42.70;100417.26;1739217;81;21991;-83
2023/10/13 11:14:33;;;;;;;15.72;5.22;;;;;;;25.70;42.64;100427.34;1722237;82;21337;-82
2023/10/13 11:17:50;;;;;;;9.05;4.83;;;;;;;25.71;42.66;100424.26;1703353;82;22533;-83
2023/10/13 11:20:56;;;;;;;25.30;7.10;;;;;;;25.59;42.94;100427.84;1709179;81;22301;-83
2023/10/13 11:24:11;;;;;;;19.12;6.42;;;;;;;25.57;42.99;100428.68;1721811;80;21434;-83
2023/10/13 11:27:43;;;;;;;17.15;5.62;;;;;;;25.67;42.85;100439.09;1721404;81;21371;-82
2023/10/13 11:33:50;;;;;;;11.48;5.28;;;;;;;25.65;42.92;100436.56;1701007;82;21411;-83
2023/10/13 11:36:58;;;;;;;9.55;4.83;;;;;;;25.61;43.14;100429.83;1705457;82;21349;-82
2023/10/13 11:40:10;;;;;;;19.57;5.42;;;;;;;25.61;43.25;100423.38;1700657;81;21368;-83
2023/10/13 11:43:14;;;;;;;14.25;4.97;;;;;;;25.46;43.58;100418.55;1719209;81;21356;-83
2023/10/13 11:49:44;;;;;;;13.45;5.35;;;;;;;25.35;44.01;100438.63;1672976;83;21754;-83
2023/10/13 11:52:50;;;;;;;14.70;5.08;;;;;;;25.38;44.18;100425.50;1644886;85;21346;-83
2023/10/13 11:55:59;;;;;;;10.45;4.45;;;;;;;25.45;44.27;100426.12;1654461;83;21357;-83
2023/10/13 11:59:05;;;;;;;15.18;4.35;;;;;;;25.56;44.21;100437.37;1685932;81;21890;-83
2023/10/13 12:05:49;;;;;;;19.37;4.78;;;;;;;25.71;43.92;100437.42;1688790;84;21322;-84
2023/10/13 12:08:49;;;;;;;13.45;3.90;;;;;;;25.55;44.14;100430.92;1700375;81;21328;-83
2023/10/13 12:11:52;;;;;;;15.38;4.50;;;;;;;25.60;44.20;100423.95;1706049;80;21377;-83
2023/10/13 12:15:09;;;;;;;14.63;4.28;;;;;;;25.70;44.02;100433.78;1732927;80;21330;-83
2023/10/13 12:18:07;;;;;;;15.53;4.05;;;;;;;25.75;44.04;100428.77;1722564;81;21345;-82
2023/10/13 12:21:19;;;;;;;12.18;4.33;;;;;;;25.66;44.36;100429.00;1685293;83;21382;-84
2023/10/13 12:25:04;;;;;;;13.93;4.00;;;;;;;25.82;44.12;100438.33;1684074;84;21945;-83
2023/10/13 12:27:48;;;;;;;12.28;4.45;;;;;;;25.87;43.74;100436.95;1738067;81;21338;-83
2023/10/13 12:30:54;;;;;;;17.40;4.55;;;;;;;25.97;43.38;100438.38;1730462;82;21334;-83
2023/10/13 12:34:06;;;;;;;15.90;4.10;;;;;;;26.03;43.27;100438.70;1706300;81;21396;-84
2023/10/13 12:37:24;;;;;;;12.55;3.70;;;;;;;26.00;43.32;100442.88;1730724;80;21369;-85
2023/10/13 12:50:44;;;;;;;11.97;3.25;;;;;;;26.20;42.26;100436.48;1646912;84;21273;-82
2023/10/13 12:53:45;;;;;;;18.60;3.83;;;;;;;26.20;42.14;100437.89;1652531;84;21446;-82
2023/10/13 12:56:56;;;;;;;13.60;3.37;;;;;;;26.07;42.40;100444.61;1719662;81;21970;-82
2023/10/13 12:59:57;;;;;;;10.40;3.40;;;;;;;26.41;41.86;100443.55;1728872;81;21357;-82
2023/10/13 13:03:11;;;;;;;15.05;3.58;;;;;;;26.14;42.10;100444.61;1707156;82;21351;-82
2023/10/13 13:06:12;;;;;;;13.15;3.47;;;;;;;26.13;41.93;100442.09;1707144;82;22372;-82
2023/10/13 13:09:25;;;;;;;7.58;3.22;;;;;;;25.96;42.11;100446.51;1693757;82;21395;-83
2023/10/13 13:12:25;;;;;;;13.90;3.50;;;;;;;26.03;41.87;100447.67;1701742;81;21379;-83
2023/10/13 13:15:30;;;;;;;15.30;3.75;;;;;;;26.24;41.61;100444.63;1703724;82;22518;-83
2023/10/13 13:18:35;;;;;;;10.25;3.58;;;;;;;26.06;41.98;100443.73;1705990;82;21349;-83
2023/10/13 13:21:41;;;;;;;10.50;3.67;;;;;;;26.21;41.73;100445.20;1711507;81;23767;-83
2023/10/13 13:24:52;;;;;;;14.58;4.08;;;;;;;25.88;42.16;100435.86;1711910;81;21985;-83
2023/10/13 13:28:04;;;;;;;8.85;3.30;;;;;;;25.86;42.17;100443.11;1697591;83;21391;-83
2023/10/13 13:31:08;;;;;;;8.60;3.50;;;;;;;25.80;42.15;100439.18;1708602;83;22007;-83
2023/10/13 13:34:16;;;;;;;14.28;4.03;;;;;;;25.88;41.97;100447.06;1635795;85;21398;-83
2023/10/13 13:37:21;;;;;;;19.82;3.95;;;;;;;25.67;42.21;100442.72;1642449;85;21968;-82
2023/10/13 13:40:34;;;;;;;12.10;3.60;;;;;;;25.74;42.05;100445.30;1723271;80;21353;-82
2023/10/13 13:46:56;;;;;;;19.65;6.65;;;;;;;25.63;42.08;100445.78;1724552;80;21366;-83
2023/10/13 13:50:14;;;;;;;16.17;9.13;;;;;;;25.40;42.24;100438.66;1723744;80;21924;-83
2023/10/13 13:53:11;;;;;;;15.80;7.03;;;;;;;25.15;42.62;100443.55;1735270;80;21346;-83
2023/10/13 13:56:16;;;;;;;20.43;8.30;;;;;;;24.94;42.68;100450.95;1710181;81;21381;-82
2023/10/13 13:59:21;;;;;;;17.27;7.45;;;;;;;25.01;42.49;100456.30;1700759;81;21369;-82
2023/10/13 14:02:28;;;;;;;15.40;8.25;;;;;;;24.83;42.67;100456.70;1719294;82;21305;-83
2023/10/13 14:05:34;;;;;;;25.82;9.23;;;;;;;24.62;43.01;100456.55;1724453;82;21369;-84
2023/10/13 14:08:41;;;;;;;28.47;8.95;;;;;;;24.57;43.07;100455.66;1730346;80;21341;-83
2023/10/13 14:15:23;;;;;;;20.23;8.68;;;;;;;24.41;43.22;100454.64;1734672;82;21361;-83
2023/10/13 14:18:30;;;;;;;27.98;7.55;;;;;;;24.56;42.86;100464.60;1728768;80;21381;-83
2023/10/13 14:21:36;;;;;;;17.02;8.13;;;;;;;24.66;42.72;100458.27;1739627;80;21353;-83
2023/10/13 14:24:44;;;;;;;17.65;8.10;;;;;;;24.55;42.82;100461.50;1728402;80;21367;-83
2023/10/13 14:27:50;;;;;;;24.77;7.70;;;;;;;24.58;42.84;100466.56;1735350;81;22658;-83
2023/10/13 14:30:56;;;;;;;22.48;7.85;;;;;;;24.50;42.95;100467.04;1726836;81;21686;-82
2023/10/13 14:34:01;;;;;;;22.35;7.85;;;;;;;24.44;43.07;100469.50;1723716;82;21359;-82
2023/10/13 14:37:06;;;;;;;15.48;6.97;;;;;;;24.27;43.39;100465.38;1725250;80;21346;-82
2023/10/13 14:40:15;;;;;;;16.07;6.28;;;;;;;24.27;43.25;100468.72;1708574;82;21389;-82
2023/10/13 14:43:21;;;;;;;20.17;8.10;;;;;;;24.22;43.40;100476.50;1701352;82;21325;-83
2023/10/13 14:46:28;;;;;;;29.72;8.18;;;;;;;24.25;43.39;100483.53;1702130;82;22397;-83
2023/10/13 14:49:35;;;;;;;32.35;12.18;;;;;;;24.31;43.28;100486.10;1699646;83;21425;-83
2023/10/13 14:52:43;;;;;;;42.67;16.85;;;;;;;24.27;43.33;100492.48;1690247;82;21362;-83
2023/10/13 14:55:51;;;;;;;29.77;16.23;;;;;;;24.27;43.28;100496.67;1673441;85;21387;-83
2023/10/13 14:58:57;;;;;;;32.38;15.50;;;;;;;24.17;43.34;100505.23;1685696;83;21370;-84
2023/10/13 15:02:03;;;;;;;31.27;13.45;;;;;;;24.11;43.34;100504.89;1710025;83;21369;-84
2023/10/13 15:05:16;;;;;;;32.38;13.83;;;;;;;24.13;43.28;100513.84;1740993;80;21361;-83
2023/10/13 15:08:19;;;;;;;43.05;14.95;;;;;;;23.77;43.92;100513.12;1722533;82;21302;-83
2023/10/13 15:11:27;;;;;;;38.10;15.88;;;;;;;24.02;43.39;100516.23;1712669;82;21349;-84
2023/10/13 15:14:33;;;;;;;38.70;14.47;;;;;;;24.02;43.44;100516.23;1724678;82;21345;-84
2023/10/13 15:17:39;;;;;;;39.92;16.97;;;;;;;23.89;43.53;100509.07;1719262;82;21346;-84
2023/10/13 15:20:49;;;;;;;33.78;12.45;;;;;;;24.03;43.15;100517.07;1717123;82;21990;-84
2023/10/13 15:23:58;;;;;;;31.95;13.05;;;;;;;24.14;42.87;100519.74;1728350;81;21395;-83
2023/10/13 15:27:02;;;;;;;33.45;13.68;;;;;;;23.93;43.30;100527.56;1723554;80;21418;-83
2023/10/13 15:30:19;;;;;;;28.70;13.05;;;;;;;23.89;43.50;100537.56;1725489;80;21370;-84
2023/10/13 15:33:15;;;;;;;30.75;12.50;;;;;;;24.04;43.22;100540.55;1740828;80;21708;-84
2023/10/13 15:36:20;;;;;;;37.95;12.68;;;;;;;24.09;43.08;100543.96;1729075;80;21357;-84
2023/10/13 15:39:31;;;;;;;33.10;14.13;;;;;;;24.00;43.08;100546.39;1722963;81;21352;-84
2023/10/13 15:42:41;;;;;;;44.63;15.23;;;;;;;23.68;43.80;100549.86;1718064;81;21357;-84
2023/10/13 15:45:46;;;;;;;46.37;14.93;;;;;;;23.73;43.84;100546.84;1712959;81;21384;-85
2023/10/13 15:48:51;;;;;;;35.43;14.05;;;;;;;23.34;44.48;100548.19;1742897;81;21325;-85
2023/10/13 15:52:11;;;;;;;29.02;12.60;;;;;;;23.18;44.92;100548.48;1698205;80;21998;-83
2023/10/13 15:55:17;;;;;;;28.42;12.40;;;;;;;23.31;44.71;100543.95;1737896;82;21425;-85
2023/10/13 15:58:25;;;;;;;44.77;15.32;;;;;;;23.35;44.72;100541.50;1737184;80;21365;-84
2023/10/13 16:01:33;;;;;;;46.83;16.80;;;;;;;23.17;44.86;100543.45;1728301;82;21349;-84
2023/10/13 16:04:39;;;;;;;33.42;13.68;;;;;;;22.95;45.47;100549.48;1721735;82;21303;-82
2023/10/13 16:07:56;;;;;;;25.20;11.73;;;;;;;22.91;45.60;100554.73;1719800;82;21374;-83
2023/10/13 16:11:14;;;;;;;26.48;12.23;;;;;;;22.92;45.58;100555.03;1694302;81;21921;-81
2023/10/13 16:14:31;;;;;;;22.17;12.05;;;;;;;22.89;45.67;100554.68;1714996;81;21280;-82
2023/10/13 16:17:55;;;;;;;36.20;14.23;;;;;;;22.85;45.91;100559.03;1720629;82;21276;-81
2023/10/13 16:21:17;;;;;;;30.23;14.68;;;;;;;22.76;46.06;100559.98;1717149;82;21371;-81
2023/10/13 16:24:23;;;;;;;35.65;14.25;;;;;;;22.84;45.96;100562.37;1720846;82;22316;-81
2023/10/13 16:27:30;;;;;;;25.40;12.55;;;;;;;22.83;46.09;100567.66;1721519;82;21317;-80
2023/10/13 16:30:37;;;;;;;29.87;12.55;;;;;;;22.95;45.83;100573.19;1718245;82;21352;-80
2023/10/13 16:33:44;;;;;;;27.82;12.45;;;;;;;22.76;46.21;100572.53;1724890;82;21346;-79
2023/10/13 16:36:55;;;;;;;34.63;11.85;;;;;;;22.79;46.20;100577.62;1722162;82;21314;-80
2023/10/13 16:40:09;;;;;;;23.05;11.15;;;;;;;22.71;46.36;100573.28;1727100;82;21390;-80
2023/10/13 16:43:08;;;;;;;29.18;12.03;;;;;;;22.59;46.66;100575.84;1714866;82;21362;-80
2023/10/13 16:46:19;;;;;;;30.88;12.35;;;;;;;22.50;46.88;100575.40;1734735;80;22053;-81
2023/10/13 16:49:26;;;;;;;33.48;12.47;;;;;;;22.56;46.91;100573.00;1731014;80;21366;-80
2023/10/13 16:52:32;;;;;;;31.75;13.38;;;;;;;22.87;46.30;100566.06;1728048;80;21334;-80
2023/10/13 16:55:39;;;;;;;33.60;14.25;;;;;;;23.03;46.06;100566.36;1740941;82;21342;-82
2023/10/13 16:58:45;;;;;;;32.35;14.10;;;;;;;22.85;46.33;100568.80;1703784;80;22612;-80
2023/10/13 17:02:00;;;;;;;29.25;13.95;;;;;;;22.71;46.64;100568.26;1715567;82;21328;-80
2023/10/13 17:05:31;;;;;;;;;;;;;;;;;;;;;
2023/10/13 17:08:36;;;;;;;40.33;15.95;;;;;;;22.56;47.05;100566.03;1715991;82;21586;-84
2023/10/13 17:11:43;;;;;;;37.03;15.93;;;;;;;22.37;47.43;100568.16;1732882;80;22260;-84